Time;durP1;ratioP1;P1;durP2;ratioP2;P2;SDS_P1;SDS_P2;PMS_P1;PMS_P2;Temp;Humidity;BMP_temperature;BMP_pressure;BME280_temperature;BME280_humidity;BME280_pressure;Samples;Min_cycle;Max_cycle;Signal;HPM_P1;HPM_P2
2023/03/09 00:02:12;;;;;;;60.15;26.45;;;;;;;1.96;100.00;96943.94;4960169;28;20125;-82
2023/03/09 00:04:38;;;;;;;53.25;24.23;;;;;;;1.98;100.00;96939.41;4962039;28;20062;-81
2023/03/09 00:07:04;;;;;;;58.53;23.80;;;;;;;1.91;100.00;96949.72;4943500;28;20413;-82
2023/03/09 00:09:29;;;;;;;63.33;25.52;;;;;;;1.98;100.00;96957.50;4962177;28;20486;-82
2023/03/09 00:11:55;;;;;;;54.92;25.00;;;;;;;2.02;100.00;96956.13;4946259;28;20039;-82
2023/03/09 00:14:22;;;;;;;60.28;25.20;;;;;;;1.97;100.00;96951.53;4959386;28;20046;-81
2023/03/09 00:16:47;;;;;;;56.15;24.27;;;;;;;1.91;100.00;96949.72;4956824;28;20051;-81
2023/03/09 00:19:20;;;;;;;60.47;24.42;;;;;;;1.76;100.00;96957.56;4957799;28;20050;-81
2023/03/09 00:21:51;;;;;;;50.85;22.85;;;;;;;1.95;100.00;96965.63;4965479;28;20455;-83
2023/03/09 00:24:19;;;;;;;60.05;25.42;;;;;;;1.90;100.00;96970.59;4944032;28;20043;-82
2023/03/09 00:26:58;;;;;;;55.00;23.80;;;;;;;2.01;100.00;96970.06;4965614;28;20046;-81
2023/03/09 00:29:25;;;;;;;59.15;25.30;;;;;;;1.83;100.00;96978.31;4962588;28;20047;-82
2023/03/09 00:31:51;;;;;;;55.75;24.08;;;;;;;1.78;100.00;96978.06;4960630;28;20049;-82
2023/03/09 00:34:17;;;;;;;60.40;24.17;;;;;;;2.03;100.00;96987.97;4946849;28;20118;-82
2023/03/09 00:36:44;;;;;;;65.63;24.80;;;;;;;1.94;100.00;96992.50;4962959;28;20059;-82
2023/03/09 00:39:12;;;;;;;61.17;26.25;;;;;;;2.11;100.00;96991.22;4947750;28;20039;-82
2023/03/09 00:41:37;;;;;;;69.03;27.35;;;;;;;1.85;100.00;96992.66;4950971;28;20408;-81
2023/03/09 00:44:04;;;;;;;73.68;27.98;;;;;;;1.91;100.00;96995.47;4967551;28;20118;-83
2023/03/09 00:46:31;;;;;;;63.42;26.38;;;;;;;1.73;100.00;96999.31;4967847;28;20066;-83
2023/03/09 00:48:57;;;;;;;60.88;26.02;;;;;;;2.01;100.00;96998.53;4945716;28;20118;-82
2023/03/09 00:51:24;;;;;;;56.72;23.50;;;;;;;1.96;100.00;97001.69;4945881;28;20050;-83
2023/03/09 00:53:49;;;;;;;62.38;24.95;;;;;;;1.90;100.00;96994.69;4965007;28;20047;-82
2023/03/09 00:56:18;;;;;;;68.43;27.58;;;;;;;2.11;100.00;97011.91;4941594;28;20113;-82
2023/03/09 00:58:44;;;;;;;72.65;25.88;;;;;;;1.95;100.00;97001.84;4961651;28;20126;-82
2023/03/09 01:01:12;;;;;;;58.03;25.25;;;;;;;2.27;100.00;97012.59;4929304;28;20150;-82
2023/03/09 01:03:38;;;;;;;56.28;22.45;;;;;;;2.23;100.00;97009.59;4963260;28;20043;-81
2023/03/09 01:06:05;;;;;;;67.07;27.80;;;;;;;2.24;100.00;97005.22;4972351;28;20051;-81
2023/03/09 01:08:31;;;;;;;68.03;27.40;;;;;;;2.14;100.00;97006.34;4972497;28;20039;-81
2023/03/09 01:10:57;;;;;;;71.10;27.60;;;;;;;2.12;100.00;96987.63;4972041;28;20066;-83
2023/03/09 01:13:23;;;;;;;66.78;27.88;;;;;;;2.24;100.00;97000.03;4957927;28;20043;-82
2023/03/09 01:15:49;;;;;;;75.78;28.45;;;;;;;2.19;100.00;97002.41;4975724;28;20117;-82
2023/03/09 01:18:14;;;;;;;69.50;28.00;;;;;;;2.25;100.00;97012.00;4975769;28;20042;-82
2023/03/09 01:20:40;;;;;;;81.15;29.23;;;;;;;2.23;100.00;97003.63;4958098;28;20382;-82
2023/03/09 01:23:06;;;;;;;71.18;27.42;;;;;;;2.46;100.00;97021.47;4975517;28;20023;-82
2023/03/09 01:25:31;;;;;;;60.58;26.05;;;;;;;2.39;100.00;97029.22;4956963;28;20180;-82
2023/03/09 01:27:57;;;;;;;59.63;25.42;;;;;;;2.41;100.00;97027.22;4975246;28;20046;-82
2023/03/09 01:30:23;;;;;;;66.35;25.92;;;;;;;2.29;100.00;97028.75;4974724;28;20070;-82
2023/03/09 01:32:48;;;;;;;132.30;32.90;;;;;;;2.22;100.00;97018.34;4957431;28;20035;-81
2023/03/09 01:35:14;;;;;;;103.78;31.08;;;;;;;2.32;100.00;97012.81;4959203;28;20406;-80
2023/03/09 01:37:39;;;;;;;267.02;45.22;;;;;;;2.42;100.00;97018.47;4975092;28;20105;-82
2023/03/09 01:40:06;;;;;;;102.22;31.05;;;;;;;2.52;100.00;97027.66;4957377;28;20053;-81
2023/03/09 01:42:33;;;;;;;61.60;25.52;;;;;;;2.70;100.00;97022.75;4975218;28;20070;-82
2023/03/09 01:45:25;;;;;;;51.63;23.13;;;;;;;2.63;100.00;97021.94;4956648;28;20043;-82
2023/03/09 01:47:50;;;;;;;52.08;22.77;;;;;;;2.49;100.00;97030.63;4948954;28;20094;-82
2023/03/09 01:50:29;;;;;;;54.50;22.50;;;;;;;2.63;100.00;97028.91;4975092;28;20038;-82
2023/03/09 01:52:57;;;;;;;55.78;24.00;;;;;;;2.51;100.00;97026.88;4973496;28;20035;-81
2023/03/09 01:55:30;;;;;;;56.13;22.45;;;;;;;2.45;100.00;97021.66;4975708;28;20533;-81
2023/03/09 01:58:01;;;;;;;54.42;23.08;;;;;;;2.47;100.00;97015.31;4971866;28;20544;-81
2023/03/09 02:00:27;;;;;;;53.63;23.73;;;;;;;2.31;100.00;97018.22;4974840;28;20117;-82
2023/03/09 02:03:00;;;;;;;57.05;24.02;;;;;;;2.47;100.00;97017.06;4975241;28;20492;-81
2023/03/09 02:05:38;;;;;;;55.15;22.90;;;;;;;2.55;100.00;97017.72;4974067;28;20121;-81
2023/03/09 02:08:04;;;;;;;50.28;21.00;;;;;;;2.34;100.00;97021.19;4973806;28;20046;-82
2023/03/09 02:10:36;;;;;;;56.28;24.20;;;;;;;2.41;100.00;97022.03;4957694;28;20122;-81
2023/03/09 02:13:08;;;;;;;61.10;23.50;;;;;;;2.52;100.00;97017.28;4974716;28;20090;-81
2023/03/09 02:15:34;;;;;;;52.03;21.65;;;;;;;2.35;100.00;97017.59;4955879;28;20046;-82
2023/03/09 02:18:00;;;;;;;41.50;19.33;;;;;;;2.37;100.00;97007.88;4956830;28;20097;-81
2023/03/09 02:20:42;;;;;;;50.83;20.58;;;;;;;2.68;100.00;97006.59;4975038;28;20050;-82
2023/03/09 02:23:19;;;;;;;48.63;21.30;;;;;;;2.65;100.00;97016.53;4974369;28;20042;-81
2023/03/09 02:25:53;;;;;;;47.55;20.48;;;;;;;2.49;100.00;97018.50;4973404;28;20047;-82
2023/03/09 02:28:18;;;;;;;;;;;;;;;2.63;100.00;97024.53;4957715;28;20093;-82
2023/03/09 02:30:46;;;;;;;45.38;20.25;;;;;;;2.52;100.00;97018.09;4974268;28;20376;-82
2023/03/09 02:33:25;;;;;;;50.90;22.40;;;;;;;2.66;100.00;97013.78;4974751;28;20035;-81
2023/03/09 02:35:59;;;;;;;52.50;20.83;;;;;;;2.57;100.00;97009.78;4956328;28;20119;-82
2023/03/09 02:38:25;;;;;;;56.00;21.02;;;;;;;2.51;100.00;97023.47;4955275;28;20508;-81
2023/03/09 02:40:55;;;;;;;50.15;19.95;;;;;;;2.60;100.00;97016.34;4974246;28;20047;-82
2023/03/09 02:43:28;;;;;;;46.58;19.27;;;;;;;2.56;100.00;97023.72;4973585;28;20098;-82
2023/03/09 02:45:54;;;;;;;47.92;18.60;;;;;;;2.54;100.00;97030.84;4974200;28;20042;-81
2023/03/09 02:48:19;;;;;;;46.47;18.98;;;;;;;2.54;100.00;97030.84;4972511;28;20507;-81
2023/03/09 02:50:45;;;;;;;46.38;19.63;;;;;;;2.46;100.00;97046.56;4973657;28;20093;-81
2023/03/09 02:53:11;;;;;;;48.22;19.30;;;;;;;2.53;100.00;97034.44;4955863;28;20073;-81
2023/03/09 02:55:36;;;;;;;44.97;18.38;;;;;;;2.49;100.00;97028.84;4973671;28;20047;-81
2023/03/09 02:58:02;;;;;;;45.80;19.15;;;;;;;2.56;100.00;97029.66;4973675;28;20082;-81
2023/03/09 03:00:28;;;;;;;42.70;18.50;;;;;;;2.50;100.00;97035.63;4972866;28;20045;-81
2023/03/09 03:02:54;;;;;;;46.58;19.38;;;;;;;2.54;100.00;97030.84;4973318;28;20035;-80
2023/03/09 03:05:20;;;;;;;50.22;19.80;;;;;;;2.41;100.00;97026.41;4937845;29;20058;-81
2023/03/09 03:07:46;;;;;;;46.75;19.80;;;;;;;2.43;100.00;97030.41;4954737;29;20126;-81
2023/03/09 03:10:11;;;;;;;40.80;18.50;;;;;;;2.52;100.00;97025.06;4953898;29;20049;-82
2023/03/09 03:12:37;;;;;;;46.15;18.63;;;;;;;2.52;100.00;97022.47;4954415;29;20047;-82
2023/03/09 03:15:05;;;;;;;47.88;18.10;;;;;;;2.57;100.00;97020.91;4936428;29;20121;-82
2023/03/09 03:17:30;;;;;;;41.30;17.50;;;;;;;2.54;100.00;97020.50;4953958;29;20035;-81
2023/03/09 03:19:56;;;;;;;36.40;16.75;;;;;;;2.44;100.00;97031.19;4954052;29;20128;-81
2023/03/09 03:22:22;;;;;;;45.40;17.63;;;;;;;2.37;100.00;97036.38;4953687;29;20054;-82
2023/03/09 03:24:53;;;;;;;34.75;15.75;;;;;;;2.47;100.00;97033.44;4954217;29;20102;-81
2023/03/09 03:27:19;;;;;;;36.15;15.32;;;;;;;2.49;100.00;97036.63;4953397;29;20051;-82
2023/03/09 03:29:45;;;;;;;38.92;15.57;;;;;;;2.43;100.00;97040.78;4953966;29;20043;-81
2023/03/09 03:32:11;;;;;;;32.83;14.73;;;;;;;2.53;100.00;97030.06;4954368;29;20039;-81
2023/03/09 03:34:37;;;;;;;30.67;13.40;;;;;;;2.50;100.00;97032.22;4935460;29;20035;-82
2023/03/09 03:37:02;;;;;;;26.67;13.70;;;;;;;2.48;100.00;97039.41;4953085;29;20053;-82
2023/03/09 03:39:28;;;;;;;25.88;12.75;;;;;;;2.55;100.00;97033.25;4954173;29;20051;-81
2023/03/09 03:41:53;;;;;;;27.23;11.43;;;;;;;2.52;100.00;97030.25;4953407;29;20035;-81
2023/03/09 03:44:22;;;;;;;24.17;11.60;;;;;;;2.43;100.00;97024.44;4953475;28;20027;-80
2023/03/09 03:46:47;;;;;;;24.98;11.73;;;;;;;2.43;100.00;97033.00;4954036;29;20075;-81
2023/03/09 03:49:13;;;;;;;22.00;10.23;;;;;;;2.44;100.00;97033.78;4953512;28;20183;-81
2023/03/09 03:51:38;;;;;;;23.10;11.52;;;;;;;2.58;100.00;97037.25;4952972;29;20043;-81
2023/03/09 03:54:04;;;;;;;22.48;10.82;;;;;;;2.49;100.00;97043.59;4935989;29;20039;-82
2023/03/09 03:56:29;;;;;;;21.00;10.73;;;;;;;2.56;100.00;97049.59;4953213;29;20047;-81
2023/03/09 03:58:55;;;;;;;26.75;11.35;;;;;;;2.46;100.00;97046.56;4936047;29;20528;-81
2023/03/09 04:01:20;;;;;;;21.90;11.48;;;;;;;2.39;100.00;97044.75;4953369;29;20071;-81
2023/03/09 04:03:46;;;;;;;23.27;11.68;;;;;;;2.37;100.00;97062.25;4935621;28;20047;-82
2023/03/09 04:06:12;;;;;;;27.25;12.07;;;;;;;2.37;100.00;97041.56;4936918;29;20126;-83
2023/03/09 04:08:37;;;;;;;51.50;15.90;;;;;;;2.36;100.00;97050.31;4954483;29;20130;-82
2023/03/09 04:11:07;;;;;;;27.17;11.85;;;;;;;2.49;100.00;97053.94;4953526;29;20066;-81
2023/03/09 04:13:32;;;;;;;30.40;13.10;;;;;;;2.22;100.00;97051.22;4954412;29;20031;-81
2023/03/09 04:15:58;;;;;;;36.60;15.30;;;;;;;2.45;100.00;97074.22;4936226;29;20121;-82
2023/03/09 04:18:23;;;;;;;28.73;12.70;;;;;;;2.45;100.00;97068.28;4936020;29;20481;-81
2023/03/09 04:20:49;;;;;;;30.52;12.10;;;;;;;2.51;100.00;97057.13;4937022;29;20066;-81
2023/03/09 04:23:14;;;;;;;25.45;12.45;;;;;;;2.51;100.00;97062.31;4953614;29;20046;-81
2023/03/09 04:25:40;;;;;;;27.40;12.70;;;;;;;2.45;100.00;97066.47;4954666;29;20102;-80
2023/03/09 04:28:05;;;;;;;25.33;12.57;;;;;;;2.59;100.00;97067.34;4954144;29;20489;-80
2023/03/09 04:30:31;;;;;;;26.75;13.02;;;;;;;2.63;100.00;97065.97;4936261;29;20039;-80
2023/03/09 04:32:57;;;;;;;27.33;12.77;;;;;;;2.67;100.00;97061.22;4954140;29;20161;-81
2023/03/09 04:35:22;;;;;;;27.23;13.88;;;;;;;2.74;100.00;97066.41;4936472;29;20047;-81
2023/03/09 04:37:48;;;;;;;29.77;14.40;;;;;;;2.71;100.00;97070.97;4954004;29;20118;-80
2023/03/09 04:40:14;;;;;;;26.73;12.70;;;;;;;2.78;100.00;97067.63;4953314;29;20071;-81
2023/03/09 04:42:40;;;;;;;25.58;12.40;;;;;;;2.80;100.00;97060.47;4953877;29;20055;-81
2023/03/09 04:45:06;;;;;;;27.25;13.07;;;;;;;2.88;100.00;97073.25;4954172;29;20417;-81
2023/03/09 04:47:32;;;;;;;30.38;12.85;;;;;;;2.91;100.00;97072.84;4957463;28;20047;-81
2023/03/09 04:49:57;;;;;;;27.65;12.82;;;;;;;2.92;100.00;97071.84;4957745;29;20079;-81
2023/03/09 04:52:23;;;;;;;34.60;14.18;;;;;;;2.80;100.00;97070.84;4957078;29;20128;-81
2023/03/09 04:54:49;;;;;;;22.20;13.57;;;;;;;2.76;100.00;97069.63;4957778;29;20122;-81
2023/03/09 04:57:14;;;;;;;29.13;13.43;;;;;;;2.80;100.00;97063.06;4957213;29;20047;-82
2023/03/09 04:59:40;;;;;;;24.83;11.90;;;;;;;2.79;100.00;97064.06;4954920;29;20139;-80
2023/03/09 05:02:06;;;;;;;24.83;12.50;;;;;;;2.74;100.00;97066.41;4957410;29;20046;-81
2023/03/09 05:04:33;;;;;;;25.63;12.82;;;;;;;2.91;100.00;97062.47;4959760;28;20047;-81
2023/03/09 05:06:58;;;;;;;23.38;12.85;;;;;;;2.97;100.00;97066.91;4968439;28;20453;-81
2023/03/09 05:09:24;;;;;;;23.17;12.05;;;;;;;3.11;100.00;97066.94;4967634;28;20071;-81
2023/03/09 05:11:52;;;;;;;27.65;12.80;;;;;;;2.82;100.00;97067.03;4967560;28;20043;-81
2023/03/09 05:14:18;;;;;;;29.30;13.45;;;;;;;2.90;100.00;97057.50;4969113;28;20113;-81
2023/03/09 05:16:45;;;;;;;27.67;13.23;;;;;;;2.95;100.00;97058.53;4966607;28;20050;-81
2023/03/09 05:19:11;;;;;;;22.80;13.02;;;;;;;3.00;100.00;97069.09;4950394;28;20039;-81
2023/03/09 05:21:37;;;;;;;23.20;14.40;;;;;;;2.59;100.00;97059.59;4952552;28;20081;-81
2023/03/09 05:24:04;;;;;;;23.77;13.30;;;;;;;2.90;100.00;97063.47;4932776;28;20073;-81
2023/03/09 05:26:29;;;;;;;26.45;14.32;;;;;;;2.69;100.00;97060.00;4967462;28;20717;-81
2023/03/09 05:28:55;;;;;;;24.20;13.63;;;;;;;2.81;100.00;97065.44;4967953;28;20043;-82
2023/03/09 05:31:21;;;;;;;24.30;14.70;;;;;;;2.92;100.00;97074.44;4965242;28;20043;-81
2023/03/09 05:33:46;;;;;;;25.65;14.90;;;;;;;2.86;100.00;97075.22;4968893;28;20496;-83
2023/03/09 05:36:21;;;;;;;29.85;15.48;;;;;;;2.91;100.00;97082.44;4947055;28;20962;-82
2023/03/09 05:38:48;;;;;;;26.20;13.27;;;;;;;2.61;100.00;97067.97;4964330;28;20046;-82
2023/03/09 05:41:14;;;;;;;27.60;16.90;;;;;;;2.68;100.00;97071.38;4963667;28;20532;-81
2023/03/09 05:43:42;;;;;;;26.08;15.18;;;;;;;2.48;100.00;97057.53;4965110;28;20031;-81
2023/03/09 05:46:09;;;;;;;31.73;16.00;;;;;;;2.52;100.00;97061.31;4968804;28;20043;-81
2023/03/09 05:48:36;;;;;;;31.40;15.85;;;;;;;2.70;100.00;97061.59;4966053;28;20039;-81
2023/03/09 05:51:01;;;;;;;28.65;15.63;;;;;;;2.53;100.00;97066.31;4966791;28;20043;-80
2023/03/09 05:53:27;;;;;;;26.80;16.50;;;;;;;2.42;100.00;97064.25;4967955;28;20042;-82
2023/03/09 05:55:53;;;;;;;29.90;17.10;;;;;;;2.52;100.00;97066.50;4966274;28;20047;-81
2023/03/09 05:58:19;;;;;;;28.40;16.05;;;;;;;2.40;100.00;97061.88;4968410;28;20046;-80
2023/03/09 06:00:45;;;;;;;30.77;17.33;;;;;;;2.31;100.00;97051.88;4963760;28;20043;-81
2023/03/09 06:03:11;;;;;;;29.13;16.17;;;;;;;2.40;100.00;97061.06;4967912;28;20035;-82
2023/03/09 06:05:37;;;;;;;32.13;17.48;;;;;;;2.33;100.00;97071.38;4976054;28;20405;-81
2023/03/09 06:08:02;;;;;;;31.90;19.23;;;;;;;2.25;100.00;97069.72;4974317;28;20078;-81
2023/03/09 06:10:28;;;;;;;39.30;19.80;;;;;;;2.25;100.00;97066.38;4957231;28;20041;-81
2023/03/09 06:12:53;;;;;;;33.80;19.48;;;;;;;2.39;100.00;97065.47;4975131;28;20047;-82
2023/03/09 06:15:19;;;;;;;35.53;20.08;;;;;;;2.31;100.00;97062.22;4957927;28;20129;-81
2023/03/09 06:17:44;;;;;;;34.60;19.30;;;;;;;2.30;100.00;97055.44;4974768;28;20545;-82
2023/03/09 06:20:11;;;;;;;36.38;19.85;;;;;;;2.36;100.00;97052.91;4975707;28;20126;-82
2023/03/09 06:22:36;;;;;;;38.78;22.33;;;;;;;2.23;100.00;97055.41;4957966;28;20124;-82
2023/03/09 06:25:02;;;;;;;41.50;22.88;;;;;;;2.43;100.00;97053.72;4974908;28;20485;-81
2023/03/09 06:27:28;;;;;;;39.75;22.38;;;;;;;2.48;100.00;97057.53;4975074;28;20034;-81
2023/03/09 06:29:53;;;;;;;49.58;24.70;;;;;;;2.34;100.00;97047.09;4975118;28;20065;-81
2023/03/09 06:32:19;;;;;;;59.05;26.83;;;;;;;2.53;100.00;97052.56;4957817;28;20098;-81
2023/03/09 06:34:45;;;;;;;78.15;31.75;;;;;;;2.49;100.00;97054.75;4975550;28;20041;-83
2023/03/09 06:37:11;;;;;;;124.50;32.92;;;;;;;2.35;100.00;97051.28;4957052;28;20043;-82
2023/03/09 06:39:43;;;;;;;185.60;41.25;;;;;;;2.55;100.00;97053.97;4975603;28;20039;-83
2023/03/09 06:42:11;;;;;;;81.90;34.13;;;;;;;2.62;100.00;97060.97;4976114;28;20034;-84
2023/03/09 06:44:37;;;;;;;64.47;32.85;;;;;;;2.34;100.00;97065.22;4975168;28;20034;-83
2023/03/09 06:47:05;;;;;;;60.05;27.55;;;;;;;2.40;100.00;97069.66;4957601;28;20066;-81
2023/03/09 06:49:31;;;;;;;62.20;28.73;;;;;;;2.47;100.00;97068.88;4957729;28;20410;-80
2023/03/09 06:51:57;;;;;;;63.33;28.95;;;;;;;2.62;100.00;97069.56;4974826;28;20492;-82
2023/03/09 06:54:23;;;;;;;56.83;27.45;;;;;;;2.71;100.00;97063.19;4956853;28;20560;-80
2023/03/09 06:56:49;;;;;;;66.00;30.85;;;;;;;2.71;100.00;97070.97;4957711;28;20074;-82
2023/03/09 06:59:15;;;;;;;72.75;35.33;;;;;;;2.78;100.00;97068.41;4957499;28;20420;-82
2023/03/09 07:01:40;;;;;;;139.55;37.83;;;;;;;2.74;100.00;97061.22;4958029;28;20042;-82
2023/03/09 07:04:07;;;;;;;82.85;35.40;;;;;;;2.86;100.00;97067.47;4973843;28;20042;-85
2023/03/09 07:06:32;;;;;;;89.30;35.55;;;;;;;2.92;100.00;97071.84;4957864;28;20629;-82
2023/03/09 07:08:58;;;;;;;73.45;35.92;;;;;;;2.92;100.00;97076.25;4956628;28;20042;-83
2023/03/09 07:11:28;;;;;;;65.75;32.70;;;;;;;3.02;100.00;97068.13;4975793;28;20558;-82
2023/03/09 07:13:53;;;;;;;78.50;38.47;;;;;;;2.77;100.00;97071.22;4976190;28;20039;-82
2023/03/09 07:16:19;;;;;;;93.07;42.10;;;;;;;2.58;100.00;97052.81;4958363;28;20050;-83
2023/03/09 07:18:45;;;;;;;74.20;33.08;;;;;;;2.58;100.00;97068.34;4975968;28;20034;-81
2023/03/09 07:21:10;;;;;;;72.32;33.63;;;;;;;2.63;100.00;97070.34;4958824;28;20061;-83
2023/03/09 07:23:36;;;;;;;67.60;34.22;;;;;;;2.71;100.00;97068.38;4956577;28;20122;-82
2023/03/09 07:26:03;;;;;;;67.95;31.85;;;;;;;2.93;100.00;97064.91;4975059;28;20459;-84
2023/03/09 07:28:30;;;;;;;65.38;32.22;;;;;;;2.95;100.00;97065.50;4975093;28;20089;-83
2023/03/09 07:30:56;;;;;;;66.72;34.95;;;;;;;3.02;100.00;97074.09;4957921;28;20489;-82
2023/03/09 07:33:26;;;;;;;63.38;32.15;;;;;;;3.12;100.00;97068.53;4975325;28;20034;-81
2023/03/09 07:35:51;;;;;;;58.90;28.95;;;;;;;2.93;100.00;97073.44;4975845;28;20047;-82
2023/03/09 07:38:17;;;;;;;68.00;33.63;;;;;;;2.87;100.00;97076.81;4958134;28;20102;-83
2023/03/09 07:40:42;;;;;;;63.53;32.83;;;;;;;3.04;100.00;97086.88;4957288;28;20047;-85
2023/03/09 07:43:10;;;;;;;62.88;32.40;;;;;;;2.97;100.00;97081.66;4962805;28;20385;-82
2023/03/09 07:45:38;;;;;;;78.45;37.25;;;;;;;3.04;100.00;97081.69;4954241;28;20520;-82
2023/03/09 07:48:04;;;;;;;57.42;29.30;;;;;;;2.99;100.00;97070.09;4974391;28;20043;-82
2023/03/09 07:50:29;;;;;;;61.25;30.88;;;;;;;2.84;100.00;97069.44;4976532;28;20354;-88
2023/03/09 07:52:55;;;;;;;76.82;37.22;;;;;;;2.76;100.00;97090.34;4985742;28;20066;-81
2023/03/09 07:55:22;;;;;;;70.20;34.72;;;;;;;3.39;100.00;97084.97;4975574;28;20102;-83
2023/03/09 07:57:47;;;;;;;66.10;33.05;;;;;;;3.63;100.00;97089.78;4975709;28;20054;-81
2023/03/09 08:00:20;;;;;;;66.03;33.13;;;;;;;3.22;100.00;97088.91;4975356;28;20038;-83
2023/03/09 08:02:46;;;;;;;76.75;34.97;;;;;;;2.89;100.00;97092.97;4974991;28;20102;-85
2023/03/09 08:05:12;;;;;;;72.25;34.67;;;;;;;2.65;100.00;97089.88;4974273;28;20508;-84
2023/03/09 08:07:46;;;;;;;78.20;34.28;;;;;;;2.49;100.00;97082.44;4956434;28;20054;-84
2023/03/09 08:10:16;;;;;;;75.50;35.00;;;;;;;2.78;100.00;97090.94;4946335;28;20053;-83
2023/03/09 08:12:46;;;;;;;74.60;34.15;;;;;;;2.70;100.00;97087.50;4953516;28;20047;-84
2023/03/09 08:15:12;;;;;;;73.93;32.33;;;;;;;2.80;100.00;97099.34;4974304;28;20377;-83
2023/03/09 08:17:37;;;;;;;62.45;30.73;;;;;;;2.78;100.00;97096.13;4974819;28;20043;-84
2023/03/09 08:20:08;;;;;;;65.68;31.02;;;;;;;2.94;100.00;97105.38;4960129;28;20051;-85
2023/03/09 08:22:39;;;;;;;65.75;33.17;;;;;;;3.00;100.00;97105.41;4962320;28;20049;-85
2023/03/09 08:25:05;;;;;;;70.82;34.40;;;;;;;2.95;100.00;97087.03;4959147;28;20045;-83
2023/03/09 08:27:37;;;;;;;95.45;36.72;;;;;;;2.85;100.00;97086.59;4975165;28;20050;-84
2023/03/09 08:30:03;;;;;;;84.00;33.65;;;;;;;2.81;100.00;97083.56;4975968;28;20042;-83
2023/03/09 08:32:29;;;;;;;70.55;33.28;;;;;;;2.72;100.00;97075.16;4976457;28;20121;-83
2023/03/09 08:34:55;;;;;;;63.33;31.92;;;;;;;2.80;100.00;97081.19;4983834;28;20615;-86
2023/03/09 08:37:24;;;;;;;74.55;32.67;;;;;;;2.79;100.00;97070.03;4968268;28;20469;-88
2023/03/09 08:39:51;;;;;;;64.90;31.13;;;;;;;2.78;100.00;97057.28;4979074;28;20046;-86
2023/03/09 08:42:34;;;;;;;;;;;;;;;;;;;;;
2023/03/09 08:45:01;;;;;;;94.80;33.15;;;;;;;2.34;100.00;97046.31;4956204;28;20035;-86
2023/03/09 08:47:27;;;;;;;141.18;37.08;;;;;;;2.49;100.00;97056.53;4975087;28;20118;-87
2023/03/09 08:49:52;;;;;;;81.35;37.00;;;;;;;2.56;100.00;97047.03;4975320;28;20055;-86
2023/03/09 08:52:18;;;;;;;82.97;37.58;;;;;;;2.89;100.00;97053.31;4975173;28;20050;-86
2023/03/09 08:54:44;;;;;;;100.32;46.22;;;;;;;2.90;100.00;97047.16;4973774;28;20464;-87
2023/03/09 08:57:09;;;;;;;91.07;43.85;;;;;;;2.80;100.00;97063.84;4974533;28;20504;-86
2023/03/09 08:59:58;;;;;;;92.00;44.40;;;;;;;3.07;100.00;97043.22;4973453;28;20448;-88
2023/03/09 09:02:26;;;;;;;93.80;40.00;;;;;;;3.04;100.00;97050.56;4972005;28;20114;-86
2023/03/09 09:05:13;;;;;;;95.90;45.03;;;;;;;2.94;100.00;97056.91;4974927;28;20050;-86
2023/03/09 09:07:40;;;;;;;105.45;45.38;;;;;;;2.83;100.00;97060.06;4976079;28;20074;-88
2023/03/09 09:10:07;;;;;;;105.47;43.78;;;;;;;2.97;100.00;97035.81;4958638;28;20408;-88
2023/03/09 09:12:37;;;;;;;167.23;70.63;;;;;;;3.19;100.00;97058.19;4958608;28;20046;-87
2023/03/09 09:15:05;;;;;;;164.95;73.82;;;;;;;3.20;100.00;97055.41;4958068;28;20042;-88
2023/03/09 09:17:30;;;;;;;86.88;42.28;;;;;;;3.02;100.00;97035.19;4975371;28;20064;-87
2023/03/09 09:19:59;;;;;;;71.75;35.97;;;;;;;3.05;100.00;97034.03;4974500;28;20106;-86
2023/03/09 09:22:25;;;;;;;64.63;32.03;;;;;;;3.81;100.00;97056.25;4957728;28;20445;-88
2023/03/09 09:24:50;;;;;;;90.18;44.95;;;;;;;4.20;100.00;97058.22;4975079;28;20058;-87
2023/03/09 09:27:16;;;;;;;64.22;35.17;;;;;;;4.00;100.00;97046.06;4983565;28;20116;-90
2023/03/09 09:29:42;;;;;;;157.70;76.68;;;;;;;3.96;100.00;97037.88;4973433;28;20521;-90
2023/03/09 09:32:08;;;;;;;70.63;40.80;;;;;;;4.08;100.00;97061.44;4968026;28;20420;-90
2023/03/09 09:34:34;;;;;;;49.25;25.38;;;;;;;4.02;100.00;97046.66;4969031;28;20110;-89
2023/03/09 09:37:01;;;;;;;78.32;45.05;;;;;;;4.42;100.00;97062.19;4966163;28;20074;-89
2023/03/09 09:39:28;;;;;;;77.22;46.17;;;;;;;4.64;100.00;97056.72;4969799;28;20090;-89
2023/03/09 09:42:00;;;;;;;86.00;55.55;;;;;;;4.77;100.00;97049.88;4969446;28;20108;-91
2023/03/09 09:44:40;;;;;;;56.15;37.38;;;;;;;4.91;100.00;97067.00;4971064;28;20047;-89
2023/03/09 09:47:10;;;;;;;90.45;43.53;;;;;;;4.55;100.00;97061.34;4969848;28;20042;-90
2023/03/09 09:49:43;;;;;;;65.57;31.42;;;;;;;4.64;100.00;97043.72;4970516;28;20046;-90
2023/03/09 09:52:26;;;;;;;57.83;29.70;;;;;;;4.95;100.00;97052.59;4972124;28;20039;-91
2023/03/09 09:54:55;;;;;;;60.58;29.75;;;;;;;4.86;100.00;97072.03;4974387;28;20097;-90
2023/03/09 09:57:45;;;;;;;50.17;24.45;;;;;;;4.69;100.00;97064.69;4973525;28;20047;-88
2023/03/09 10:00:19;;;;;;;60.25;35.05;;;;;;;5.08;100.00;97058.72;4969584;28;20106;-91
2023/03/09 10:03:23;;;;;;;215.88;101.22;;;;;;;5.11;100.00;97059.13;4948398;29;20102;-91
2023/03/09 10:05:58;;;;;;;159.68;55.95;;;;;;;4.98;100.00;97054.78;4994003;28;20066;-88
2023/03/09 10:08:42;;;;;;;83.32;45.25;;;;;;;4.64;100.00;97058.53;4968254;28;20054;-90
2023/03/09 10:11:19;;;;;;;48.55;31.17;;;;;;;4.74;100.00;97039.91;4961315;28;20461;-89
2023/03/09 10:13:53;;;;;;;45.65;27.92;;;;;;;5.03;100.00;97054.19;4976570;28;20037;-91
2023/03/09 10:16:25;;;;;;;50.33;30.88;;;;;;;5.28;100.00;97033.41;4987248;28;20098;-89
2023/03/09 10:18:56;;;;;;;40.85;27.83;;;;;;;5.29;100.00;97009.00;4988640;28;20035;-90
2023/03/09 10:21:28;;;;;;;39.75;25.40;;;;;;;5.29;100.00;97024.59;5006704;28;20046;-90
2023/03/09 10:23:57;;;;;;;29.25;19.98;;;;;;;4.83;100.00;97047.28;4987665;28;20049;-90
2023/03/09 10:26:29;;;;;;;19.92;14.23;;;;;;;4.92;100.00;97042.63;4969332;28;20104;-89
2023/03/09 10:29:00;;;;;;;20.92;15.77;;;;;;;4.83;100.00;97030.84;4971637;28;20057;-90
2023/03/09 10:31:38;;;;;;;15.40;11.48;;;;;;;5.24;100.00;97032.25;4956578;28;20046;-86
2023/03/09 10:34:10;;;;;;;15.48;11.75;;;;;;;5.43;100.00;97032.31;4981266;28;20047;-88
2023/03/09 10:36:41;;;;;;;16.55;11.10;;;;;;;5.32;100.00;97012.97;4965751;28;20042;-89
2023/03/09 10:39:17;;;;;;;17.65;12.02;;;;;;;5.42;100.00;97012.50;4965332;28;20045;-88
2023/03/09 10:42:36;;;;;;;14.77;10.07;;;;;;;5.44;100.00;97018.31;4961631;28;20110;-91
2023/03/09 10:45:25;;;;;;;15.30;10.63;;;;;;;5.61;100.00;97002.16;4967298;28;20094;-89
2023/03/09 10:47:54;;;;;;;14.95;10.63;;;;;;;5.53;100.00;97014.44;4965753;28;20516;-89
2023/03/09 10:50:22;;;;;;;18.38;12.82;;;;;;;5.60;100.00;96984.97;4965449;28;20039;-88
2023/03/09 10:53:36;;;;;;;15.32;10.93;;;;;;;5.77;100.00;97001.63;4975369;28;20039;-88
2023/03/09 10:56:24;;;;;;;13.82;9.95;;;;;;;5.65;100.00;97011.94;4979639;28;20114;-88
2023/03/09 10:59:06;;;;;;;13.13;9.10;;;;;;;5.70;100.00;97017.31;4959641;28;20042;-88
2023/03/09 11:01:35;;;;;;;13.45;9.50;;;;;;;5.52;100.00;97018.06;4980529;28;20042;-87
2023/03/09 11:04:01;;;;;;;15.18;9.68;;;;;;;5.71;100.00;97025.94;4979007;28;20089;-89
2023/03/09 11:06:34;;;;;;;13.80;10.02;;;;;;;5.89;100.00;97016.53;4961105;28;20516;-87
2023/03/09 11:09:10;;;;;;;;;;;;;;;5.80;100.00;97013.44;4961478;28;20034;-90
2023/03/09 11:11:36;;;;;;;26.10;14.95;;;;;;;5.42;100.00;97022.91;4976699;28;20295;-88
2023/03/09 11:14:02;;;;;;;34.70;17.10;;;;;;;5.43;100.00;97006.31;4960118;28;20095;-90
2023/03/09 11:16:38;;;;;;;69.50;31.80;;;;;;;5.78;100.00;97021.44;4961281;28;20042;-88
2023/03/09 11:19:13;;;;;;;57.67;27.00;;;;;;;5.42;100.00;97026.34;4962737;28;20062;-86
2023/03/09 11:22:02;;;;;;;31.45;17.55;;;;;;;5.10;100.00;97041.13;4962157;28;20050;-89
2023/03/09 11:24:35;;;;;;;40.13;22.98;;;;;;;4.99;100.00;97029.56;4978187;28;20109;-90
2023/03/09 11:27:22;;;;;;;28.02;18.75;;;;;;;5.12;100.00;97029.50;4961675;28;20568;-88